Time;durP1;ratioP1;P1;durP2;ratioP2;P2;SDS_P1;SDS_P2;PMS_P1;PMS_P2;Temp;Humidity;BMP_temperature;BMP_pressure;BME280_temperature;BME280_humidity;BME280_pressure;Samples;Min_cycle;Max_cycle;Signal;HPM_P1;HPM_P2
2023/09/07 00:00:00;;;;;;;10.37;6.70;;;;;;;18.74;100.00;63222.66;6212049;23;20007;-72
2023/09/07 00:02:25;;;;;;;12.17;8.20;;;;;;;18.76;100.00;61816.66;6210413;23;20443;-72
2023/09/07 00:04:51;;;;;;;8.53;7.23;;;;;;;18.68;100.00;62512.50;6212819;23;20067;-72
2023/09/07 00:07:16;;;;;;;9.87;7.57;;;;;;;18.68;100.00;62864.38;6211713;23;20442;-72
2023/09/07 00:09:41;;;;;;;10.50;7.90;;;;;;;18.66;100.00;63213.63;6212581;23;20335;-72
2023/09/07 00:12:07;;;;;;;11.90;7.53;;;;;;;18.66;100.00;57587.63;6211167;23;20004;-72
2023/09/07 00:14:32;;;;;;;14.13;7.67;;;;;;;18.58;100.00;60391.75;6185288;23;20071;-72
2023/09/07 00:16:57;;;;;;;16.33;7.73;;;;;;;18.61;100.00;58636.56;6211912;23;20039;-72
2023/09/07 00:19:23;;;;;;;12.53;8.47;;;;;;;18.61;100.00;57230.94;6210725;23;20004;-72
2023/09/07 00:21:51;;;;;;;11.90;7.67;;;;;;;18.58;100.00;57931.25;6212348;23;20040;-72
2023/09/07 00:24:17;;;;;;;11.15;8.10;;;;;;;18.53;100.00;61089.91;6210906;23;20024;-72
2023/09/07 00:26:43;;;;;;;8.65;7.05;;;;;;;18.52;100.00;58627.69;6211762;23;20066;-72
2023/09/07 00:29:09;;;;;;;11.23;7.47;;;;;;;18.46;100.00;61082.22;6213396;23;20008;-72
2023/09/07 00:31:34;;;;;;;11.97;7.93;;;;;;;18.42;100.00;61078.09;6185824;23;20004;-72
2023/09/07 00:33:59;;;;;;;9.20;7.33;;;;;;;18.41;100.00;61780.28;6213801;23;20031;-72
2023/09/07 00:36:25;;;;;;;10.87;7.70;;;;;;;18.34;100.00;60367.38;6213896;23;20015;-72
2023/09/07 00:38:50;;;;;;;11.57;8.03;;;;;;;18.32;100.00;57202.97;6214343;23;20004;-72
2023/09/07 00:41:15;;;;;;;10.60;7.33;;;;;;;18.29;100.00;56497.78;6214533;23;20418;-72
2023/09/07 00:43:41;;;;;;;13.73;7.63;;;;;;;18.29;100.00;57551.22;6214403;23;20008;-72
2023/09/07 00:46:07;;;;;;;10.90;7.20;;;;;;;18.21;100.00;57192.34;6214668;23;20008;-72
2023/09/07 00:48:33;;;;;;;9.45;7.25;;;;;;;18.10;100.00;57182.22;6214121;23;20419;-72
2023/09/07 00:50:59;;;;;;;11.82;7.65;;;;;;;18.13;100.00;52272.72;6213942;23;20017;-72
2023/09/07 00:53:26;;;;;;;10.63;7.20;;;;;;;18.05;100.00;55071.81;6213538;23;20434;-72
2023/09/07 00:55:53;;;;;;;13.20;7.35;;;;;;;18.04;100.00;55772.16;6214106;23;20478;-72
2023/09/07 00:58:19;;;;;;;11.15;7.35;;;;;;;17.99;100.00;53312.59;6214386;23;20005;-72
2023/09/07 01:00:44;;;;;;;10.83;7.57;;;;;;;17.92;100.00;49451.06;6186786;23;20015;-72
2023/09/07 01:03:09;;;;;;;18.13;7.00;;;;;;;17.86;100.00;49446.44;6187166;23;20005;-72
2023/09/07 01:05:50;;;;;;;12.60;7.27;;;;;;;17.77;100.00;50489.19;6187209;23;20004;-72
2023/09/07 01:08:24;;;;;;;9.55;7.50;;;;;;;17.78;100.00;44889.56;6212485;23;20012;-72
2023/09/07 01:10:50;;;;;;;10.80;8.43;;;;;;;17.70;100.00;46282.63;6214599;23;20438;-71
2023/09/07 01:13:15;;;;;;;8.87;7.23;;;;;;;17.72;100.00;44884.97;6212930;23;20093;-72
2023/09/07 01:15:40;;;;;;;10.23;7.43;;;;;;;17.67;100.00;45580.66;6213729;23;20082;-72
2023/09/07 01:18:08;;;;;;;10.60;8.57;;;;;;;17.62;100.00;46626.19;6212442;23;20062;-72
2023/09/07 01:20:35;;;;;;;14.25;7.85;;;;;;;17.60;100.00;44875.84;6213994;23;20015;-72
2023/09/07 01:23:03;;;;;;;16.60;8.02;;;;;;;17.60;100.00;42429.19;6212868;23;20054;-72
2023/09/07 01:25:28;;;;;;;10.57;8.02;;;;;;;17.55;100.00;41377.06;6213740;23;20001;-72
2023/09/07 01:27:53;;;;;;;13.50;7.53;;;;;;;17.52;100.00;40327.47;6212587;23;20015;-72
2023/09/07 01:30:19;;;;;;;9.17;8.13;;;;;;;17.46;100.00;43117.56;6213642;23;20496;-72
2023/09/07 01:32:45;;;;;;;12.82;7.55;;;;;;;17.43;100.00;43814.25;6185570;23;20000;-72
2023/09/07 01:35:11;;;;;;;13.33;9.13;;;;;;;17.44;100.00;39972.47;6213573;23;20445;-72
2023/09/07 01:37:36;;;;;;;19.33;9.10;;;;;;;17.41;100.00;38923.16;6212838;23;20013;-72
2023/09/07 01:40:07;;;;;;;12.93;8.17;;;;;;;17.37;100.00;38222.50;6213505;23;20079;-71
2023/09/07 01:42:32;;;;;;;10.80;8.55;;;;;;;17.25;100.00;37517.25;6186252;23;20008;-72
2023/09/07 01:44:58;;;;;;;19.77;9.53;;;;;;;17.25;100.00;35076.22;6213995;23;20004;-73
2023/09/07 01:47:23;;;;;;;11.23;9.37;;;;;;;17.28;100.00;32986.78;6186596;23;20008;-72
2023/09/07 01:49:48;;;;;;;19.40;10.60;;;;;;;17.22;100.00;31589.97;6212955;23;20331;-72
2023/09/07 01:52:14;;;;;;;14.00;9.70;;;;;;;17.20;100.00;31936.91;6213370;23;20023;-72
2023/09/07 01:54:39;;;;;;;12.20;8.83;;;;;;;17.19;100.00;31588.06;6185721;23;20004;-71
2023/09/07 01:57:04;;;;;;;10.30;9.10;;;;;;;17.21;100.00;32634.13;6212699;23;20005;-72
2023/09/07 01:59:29;;;;;;;18.23;10.87;;;;;;;17.18;100.00;31936.06;6212418;23;20032;-72
2023/09/07 02:01:55;;;;;;;16.20;10.07;;;;;;;17.18;100.00;30194.75;6211780;23;20063;-73
2023/09/07 02:04:20;;;;;;;11.43;9.43;;;;;;;17.11;100.00;29494.94;6213040;23;20396;-72
2023/09/07 02:06:45;;;;;;;12.50;10.30;;;;;;;17.06;100.00;28796.69;6213421;23;20070;-72
2023/09/07 02:09:11;;;;;;;12.00;9.77;;;;;;;17.03;100.00;28794.94;6186075;23;20106;-71
2023/09/07 02:11:36;;;;;;;13.73;9.10;;;;;;;17.02;100.00;28794.69;6213271;23;20039;-72
2023/09/07 02:14:02;;;;;;;13.77;10.73;;;;;;;17.04;100.00;26708.63;6213409;23;20001;-72
2023/09/07 02:16:27;;;;;;;16.40;9.03;;;;;;;16.99;100.00;25663.03;6212583;23;20058;-71
2023/09/07 02:19:01;;;;;;;13.87;10.33;;;;;;;16.93;100.00;26007.97;6212199;23;20005;-72
2023/09/07 02:21:26;;;;;;;12.65;10.15;;;;;;;16.93;100.00;24270.22;6185833;23;20039;-73
2023/09/07 02:23:52;;;;;;;13.10;10.07;;;;;;;16.93;100.00;23922.78;6212410;23;20001;-72
2023/09/07 02:26:17;;;;;;;16.03;9.30;;;;;;;16.87;100.00;23572.88;6212676;23;20001;-72
2023/09/07 02:28:43;;;;;;;14.00;10.43;;;;;;;16.85;100.00;22877.56;6212558;23;20015;-72
2023/09/07 02:31:08;;;;;;;12.85;9.80;;;;;;;16.79;100.00;21833.50;6212466;23;20740;-72
2023/09/07 02:33:35;;;;;;;15.33;10.03;;;;;;;16.75;100.00;20790.44;6212818;23;20071;-72
2023/09/07 02:36:00;;;;;;;9.82;8.80;;;;;;;16.73;100.00;21484.06;6212990;23;20059;-71
2023/09/07 02:38:26;;;;;;;17.57;10.00;;;;;;;16.68;100.00;20787.84;6212349;23;20324;-72
2023/09/07 02:40:51;;;;;;;12.90;10.40;;;;;;;16.66;100.00;23564.16;6213195;23;20004;-72
2023/09/07 02:43:17;;;;;;;14.23;9.70;;;;;;;16.65;100.00;23563.97;6213109;23;20005;-73
2023/09/07 02:45:42;;;;;;;14.27;10.40;;;;;;;16.69;100.00;20788.22;6212994;23;19996;-73
2023/09/07 02:48:07;;;;;;;14.47;11.07;;;;;;;16.66;100.00;22175.41;6212465;23;20514;-73
2023/09/07 02:50:34;;;;;;;13.40;10.80;;;;;;;16.62;100.00;23909.97;6185735;23;20008;-73
2023/09/07 02:53:00;;;;;;;14.60;10.55;;;;;;;16.63;100.00;20092.28;6212437;23;20469;-73
2023/09/07 02:55:26;;;;;;;12.52;10.82;;;;;;;16.59;100.00;19050.09;6212745;23;20008;-72
2023/09/07 02:57:51;;;;;;;12.68;10.10;;;;;;;16.55;100.00;21477.19;6212577;23;20017;-73
2023/09/07 03:00:17;;;;;;;16.27;10.27;;;;;;;16.53;100.00;19048.03;6213909;23;20010;-73
2023/09/07 03:02:43;;;;;;;16.27;11.67;;;;;;;16.55;100.00;18701.94;6211727;23;20005;-73
2023/09/07 03:05:09;;;;;;;14.20;11.68;;;;;;;16.45;100.00;19045.50;6185720;23;19996;-73
2023/09/07 03:07:34;;;;;;;16.73;11.37;;;;;;;16.44;100.00;18351.59;6211477;23;20001;-72
2023/09/07 03:10:00;;;;;;;17.90;11.63;;;;;;;16.46;100.00;19392.41;6212206;23;20135;-73
2023/09/07 03:12:26;;;;;;;14.00;11.77;;;;;;;16.45;100.00;20779.56;6211647;23;20058;-73
2023/09/07 03:14:52;;;;;;;15.55;11.60;;;;;;;16.42;100.00;19737.78;6212714;23;20009;-73
2023/09/07 03:17:17;;;;;;;13.13;11.00;;;;;;;16.42;100.00;18351.09;6185155;23;20430;-73
2023/09/07 03:19:43;;;;;;;13.70;11.63;;;;;;;16.38;100.00;16963.47;6184548;23;20058;-73
2023/09/07 03:22:09;;;;;;;14.57;11.10;;;;;;;16.36;100.00;18002.34;6184915;23;20058;-72
2023/09/07 03:24:35;;;;;;;16.67;11.32;;;;;;;16.35;100.00;19388.59;6211947;23;20039;-73
2023/09/07 03:27:00;;;;;;;16.40;11.47;;;;;;;16.28;100.00;19386.34;6212788;23;20005;-74
2023/09/07 03:29:26;;;;;;;13.37;11.97;;;;;;;16.27;100.00;19732.50;6212099;23;20661;-72
2023/09/07 03:31:51;;;;;;;16.53;12.33;;;;;;;16.24;100.00;20425.06;6211257;23;20423;-73
2023/09/07 03:34:17;;;;;;;14.73;10.87;;;;;;;16.21;100.00;20770.50;6212311;23;20051;-72
2023/09/07 03:36:42;;;;;;;21.80;14.57;;;;;;;16.26;100.00;16613.22;6211722;23;20020;-73
2023/09/07 03:39:07;;;;;;;15.97;13.00;;;;;;;16.21;100.00;13841.63;6212612;23;20028;-73
2023/09/07 03:41:34;;;;;;;16.77;13.17;;;;;;;16.18;100.00;15225.59;6212733;23;20008;-73
2023/09/07 03:44:00;;;;;;;14.32;12.82;;;;;;;16.12;100.00;16262.69;6213314;23;20001;-72
2023/09/07 03:46:26;;;;;;;16.53;12.20;;;;;;;16.12;100.00;16262.81;6210910;23;20001;-73
2023/09/07 03:48:52;;;;;;;14.38;12.07;;;;;;;16.12;100.00;15916.41;6212790;23;20008;-73
2023/09/07 03:51:17;;;;;;;22.00;13.90;;;;;;;16.13;100.00;14531.84;6185815;23;20015;-72
2023/09/07 03:53:43;;;;;;;21.87;14.30;;;;;;;16.11;100.00;12801.09;6200959;23;20024;-74
2023/09/07 03:56:08;;;;;;;16.73;12.73;;;;;;;16.08;100.00;13146.25;6212932;23;20011;-73
2023/09/07 03:58:33;;;;;;;17.37;13.47;;;;;;;16.05;100.00;13837.53;6211832;23;20079;-73
2023/09/07 04:00:59;;;;;;;18.30;12.93;;;;;;;16.02;100.00;14182.81;6210816;23;20011;-73
2023/09/07 04:03:25;;;;;;;22.53;14.13;;;;;;;16.01;100.00;13836.66;6209447;23;20000;-73
2023/09/07 04:05:51;;;;;;;18.73;14.13;;;;;;;16.07;100.00;11762.38;6210569;23;20051;-73
2023/09/07 04:08:16;;;;;;;21.50;14.40;;;;;;;16.06;100.00;12107.94;6211472;23;20004;-73
2023/09/07 04:10:41;;;;;;;23.53;14.47;;;;;;;16.03;100.00;13145.16;6211115;23;20001;-72
2023/09/07 04:13:07;;;;;;;22.60;15.00;;;;;;;16.02;100.00;13144.78;6212088;23;20051;-73
2023/09/07 04:15:44;;;;;;;18.73;14.27;;;;;;;16.06;100.00;10724.59;6210367;23;20027;-73
2023/09/07 04:18:12;;;;;;;17.35;14.75;;;;;;;16.05;100.00;10724.50;6211165;23;20000;-73
2023/09/07 04:20:38;;;;;;;18.67;14.07;;;;;;;16.03;100.00;11069.75;6211513;23;20005;-73
2023/09/07 04:23:03;;;;;;;24.70;15.10;;;;;;;15.99;100.00;12106.44;6212427;23;20088;-72
2023/09/07 04:25:29;;;;;;;15.67;13.37;;;;;;;15.97;100.00;13489.50;6211735;23;20376;-73
2023/09/07 04:27:56;;;;;;;18.27;13.87;;;;;;;15.97;100.00;12797.63;6212135;23;20036;-73
2023/09/07 04:30:21;;;;;;;17.67;14.70;;;;;;;16.01;100.00;9686.47;6211760;23;20114;-73
2023/09/07 04:32:47;;;;;;;18.93;15.87;;;;;;;15.99;100.00;10723.16;6211672;23;20109;-73
2023/09/07 04:35:12;;;;;;;18.60;14.13;;;;;;;15.96;100.00;10031.16;6210758;23;20040;-73
2023/09/07 04:37:37;;;;;;;17.50;14.60;;;;;;;15.92;100.00;10376.03;6212091;23;20008;-73
2023/09/07 04:40:06;;;;;;;17.70;15.00;;;;;;;15.93;100.00;8302.88;6212295;23;20059;-73
2023/09/07 04:42:31;;;;;;;19.27;14.88;;;;;;;15.94;100.00;8648.44;6210852;23;20088;-72
2023/09/07 04:44:56;;;;;;;20.13;13.43;;;;;;;15.90;100.00;9684.41;6211548;23;20419;-73
2023/09/07 04:47:22;;;;;;;19.97;14.50;;;;;;;15.88;100.00;10375.34;6210228;23;20109;-72
2023/09/07 04:49:53;;;;;;;19.90;15.17;;;;;;;15.81;100.00;11065.13;6210291;23;20012;-72
2023/09/07 04:52:18;;;;;;;29.15;18.55;;;;;;;15.89;100.00;10029.81;6210772;23;20297;-73
2023/09/07 04:54:44;;;;;;;25.20;17.53;;;;;;;15.90;100.00;8302.38;6212156;23;20032;-72
2023/09/07 04:57:10;;;;;;;18.92;15.35;;;;;;;15.87;100.00;8992.84;6212234;23;20334;-73
2023/09/07 04:59:36;;;;;;;22.55;16.83;;;;;;;15.86;100.00;8647.16;6185388;23;20004;-73
2023/09/07 05:02:01;;;;;;;20.50;16.03;;;;;;;15.90;100.00;7611.41;6211266;23;20004;-72
2023/09/07 05:04:27;;;;;;;23.23;14.40;;;;;;;15.91;100.00;7266.16;6211949;23;20422;-72
2023/09/07 05:06:53;;;;;;;20.00;15.68;;;;;;;15.92;100.00;7611.72;6209557;23;20445;-72
2023/09/07 05:09:20;;;;;;;20.77;15.53;;;;;;;15.96;100.00;7957.88;6184890;23;20091;-72
2023/09/07 05:11:45;;;;;;;23.85;16.45;;;;;;;15.96;100.00;8994.34;6183582;23;20004;-72
2023/09/07 05:14:11;;;;;;;20.17;16.37;;;;;;;15.96;100.00;7957.78;6212221;23;20009;-72
2023/09/07 05:16:36;;;;;;;26.60;16.83;;;;;;;16.03;100.00;6577.19;6212975;23;20062;-72
2023/09/07 05:19:01;;;;;;;18.40;16.43;;;;;;;16.00;100.00;7612.97;6212894;23;20427;-72
2023/09/07 05:21:27;;;;;;;22.33;17.27;;;;;;;16.02;100.00;6922.47;6212656;23;20446;-72
2023/09/07 05:23:52;;;;;;;20.23;16.80;;;;;;;16.09;100.00;5196.59;6213860;23;20091;-72
2023/09/07 05:26:22;;;;;;;26.50;17.40;;;;;;;16.14;100.00;4506.56;6213032;23;20036;-72
2023/09/07 05:28:47;;;;;;;24.77;17.73;;;;;;;16.27;100.00;2436.41;6213776;23;20005;-72
2023/09/07 05:31:13;;;;;;;27.33;17.67;;;;;;;16.28;100.00;3126.84;6211854;23;20015;-71
2023/09/07 05:33:38;;;;;;;34.17;17.00;;;;;;;16.27;100.00;4507.88;6212281;23;20008;-72
2023/09/07 05:36:03;;;;;;;21.83;15.00;;;;;;;16.29;100.00;4853.44;6213185;23;20005;-73
2023/09/07 05:38:29;;;;;;;20.87;15.87;;;;;;;16.34;100.00;4508.66;6212676;23;20308;-72
2023/09/07 05:40:54;;;;;;;33.20;17.10;;;;;;;16.41;100.00;5200.22;6213296;23;20376;-73
2023/09/07 05:43:20;;;;;;;32.50;16.13;;;;;;;16.46;100.00;5546.38;6186703;23;20008;-73
2023/09/07 05:45:47;;;;;;;28.92;16.55;;;;;;;16.65;100.00;4511.84;6212178;23;20005;-73
2023/09/07 05:48:12;;;;;;;20.42;16.60;;;;;;;16.64;100.00;5894.22;6183569;23;20019;-75
2023/09/07 05:50:39;;;;;;;25.20;16.37;;;;;;;16.68;100.00;6931.88;6211611;23;20000;-73
2023/09/07 05:53:05;;;;;;;22.50;16.50;;;;;;;16.77;100.00;7279.06;6212183;23;20401;-73
2023/09/07 05:55:30;;;;;;;19.38;17.02;;;;;;;16.81;100.00;7625.50;6211940;23;20016;-72
2023/09/07 05:57:57;;;;;;;22.87;16.83;;;;;;;16.95;100.00;7627.66;6212772;23;20000;-73
2023/09/07 06:00:23;;;;;;;26.50;17.17;;;;;;;17.04;100.00;8667.34;6211399;23;20503;-74
2023/09/07 06:02:49;;;;;;;24.67;17.30;;;;;;;17.19;100.00;10055.06;6214236;23;20004;-73
2023/09/07 06:44:02;;;;;;;20.17;14.55;;;;;;;18.59;100.00;69897.19;6184364;22;20016;-74
2023/09/07 06:46:27;;;;;;;17.53;12.60;;;;;;;18.78;100.00;74152.50;6241996;23;20008;-71
2023/09/07 06:48:53;;;;;;;26.97;13.03;;;;;;;18.90;100.00;84771.66;6239766;23;20074;-71
2023/09/07 06:51:18;;;;;;;22.37;14.30;;;;;;;19.06;100.00;87627.63;6242286;23;20014;-72
2023/09/07 06:53:43;;;;;;;18.30;13.13;;;;;;;19.14;100.00;95442.16;6215322;23;20480;-73
2023/09/07 06:56:10;;;;;;;17.50;12.80;;;;;;;19.20;100.00;104693.66;6242128;23;20008;-72
2023/09/07 06:58:35;;;;;;;21.25;12.93;;;;;;;19.31;100.00;106849.03;6240977;23;20011;-74
2023/09/07 07:01:02;;;;;;;21.07;12.80;;;;;;;19.46;100.00;115433.63;6213987;23;20442;-72
2023/09/07 07:03:29;;;;;;;16.75;12.38;;;;;;;19.77;100.00;124431.47;6240813;23;20011;-72
2023/09/07 07:05:55;;;;;;;13.70;10.73;;;;;;;20.31;100.00;154853.09;6243609;23;19998;-74
2023/09/07 07:08:20;;;;;;;16.73;13.00;;;;;;;20.54;100.00;156609.19;6242432;23;20011;-72
2023/09/07 07:10:46;;;;;;;17.43;11.80;;;;;;;20.87;100.00;156695.31;6215828;23;20087;-75
2023/09/07 07:13:11;;;;;;;20.63;10.97;;;;;;;21.37;100.00;156825.91;6242244;23;20008;-72
2023/09/07 07:15:37;;;;;;;14.83;11.40;;;;;;;21.72;100.00;156917.31;6240124;23;20000;-72
2023/09/07 07:18:08;;;;;;;275.80;26.30;;;;;;;22.20;100.00;157041.44;6242146;23;20008;-71
2023/09/07 07:20:40;;;;;;;18.30;10.07;;;;;;;22.54;100.00;157131.63;6242167;23;20023;-73
2023/09/07 07:23:09;;;;;;;58.72;12.88;;;;;;;22.72;100.00;157177.38;6241174;23;20334;-72
2023/09/07 07:25:35;;;;;;;17.45;11.55;;;;;;;22.72;100.00;157178.66;6244383;23;20004;-76
2023/09/07 07:28:05;;;;;;;19.42;10.55;;;;;;;22.88;100.00;157219.19;6217548;23;20453;-74
2023/09/07 07:30:31;;;;;;;21.60;11.23;;;;;;;23.01;100.00;157253.16;6244529;23;20010;-75
2023/09/07 07:32:56;;;;;;;16.60;11.20;;;;;;;23.06;100.00;157266.22;6216011;23;20410;-71
2023/09/07 07:35:22;;;;;;;15.57;10.10;;;;;;;23.02;100.00;157257.06;6239481;23;20010;-71
2023/09/07 07:37:49;;;;;;;19.30;10.23;;;;;;;22.71;100.00;157174.72;6214421;23;20008;-71
2023/09/07 07:40:14;;;;;;;20.00;9.70;;;;;;;22.70;100.00;157173.44;6241501;23;20434;-72
2023/09/07 07:42:40;;;;;;;13.30;10.20;;;;;;;22.57;100.00;157139.44;6241178;23;20011;-73
2023/09/07 07:45:06;;;;;;;17.03;10.60;;;;;;;22.53;100.00;157127.69;6224813;23;20012;-74
2023/09/07 07:47:31;;;;;;;18.65;10.98;;;;;;;22.45;100.00;157106.75;6242044;22;20004;-73
2023/09/07 07:49:57;;;;;;;17.90;11.23;;;;;;;22.44;100.00;157104.16;6239480;23;20008;-74
2023/09/07 07:52:22;;;;;;;25.47;11.00;;;;;;;22.25;100.00;157054.50;6241346;22;20000;-74
2023/09/07 07:54:47;;;;;;;16.20;10.30;;;;;;;22.19;100.00;157038.81;6241051;22;20430;-73
2023/09/07 07:57:13;;;;;;;13.23;10.27;;;;;;;22.02;100.00;156995.69;6240540;23;20370;-74
2023/09/07 07:59:38;;;;;;;15.63;10.83;;;;;;;22.13;100.00;157024.44;6241658;22;20027;-74
2023/09/07 08:02:05;;;;;;;18.40;11.83;;;;;;;22.23;100.00;157049.25;6241808;23;20007;-74
2023/09/07 08:04:32;;;;;;;26.05;12.55;;;;;;;22.18;100.00;157037.50;6241941;23;20008;-71
2023/09/07 08:07:03;;;;;;;19.25;11.13;;;;;;;22.19;100.00;157038.81;6243354;22;20030;-72
2023/09/07 08:09:29;;;;;;;15.65;10.82;;;;;;;22.31;100.00;157071.44;6241355;22;20004;-74
2023/09/07 08:11:55;;;;;;;15.45;9.88;;;;;;;22.35;100.00;157080.63;6240347;23;19999;-73
2023/09/07 08:14:22;;;;;;;;;;;;;;;22.45;100.00;157106.75;6242131;23;20367;-74
2023/09/07 08:16:47;;;;;;;21.90;11.18;;;;;;;22.59;100.00;157143.38;6241587;23;19935;-72
2023/09/07 08:19:13;;;;;;;21.43;10.37;;;;;;;22.63;100.00;157153.84;6239955;22;20000;-72
2023/09/07 08:21:38;;;;;;;16.33;10.13;;;;;;;22.67;100.00;157164.31;6241185;23;20057;-74
2023/09/07 08:24:03;;;;;;;15.57;10.20;;;;;;;22.68;100.00;157166.91;6240619;23;20057;-73
2023/09/07 08:26:29;;;;;;;14.93;10.90;;;;;;;22.76;100.00;157187.78;6242166;23;20053;-73
2023/09/07 08:28:54;;;;;;;16.33;10.40;;;;;;;22.86;100.00;157213.94;6242173;22;20426;-74
2023/09/07 08:31:22;;;;;;;18.13;10.83;;;;;;;22.93;100.00;157233.53;6239176;22;20012;-74
2023/09/07 08:33:50;;;;;;;16.67;10.80;;;;;;;22.94;100.00;157234.88;6237515;23;20345;-74
2023/09/07 08:36:17;;;;;;;15.73;10.82;;;;;;;23.13;100.00;157284.50;6238665;22;20112;-70
2023/09/07 08:38:42;;;;;;;14.02;10.38;;;;;;;23.28;100.00;157325.09;6241005;22;20376;-70
2023/09/07 08:41:08;;;;;;;16.42;10.13;;;;;;;23.34;100.00;157340.78;6242437;22;20004;-70
2023/09/07 08:43:40;;;;;;;14.87;10.20;;;;;;;23.50;100.00;157382.63;6239545;23;20007;-71
2023/09/07 08:46:18;;;;;;;13.88;10.00;;;;;;;23.64;100.00;157419.19;6242314;22;20008;-71
2023/09/07 08:48:46;;;;;;;16.15;9.90;;;;;;;23.74;100.00;157445.38;6242310;22;20003;-71
2023/09/07 08:51:14;;;;;;;16.95;10.05;;;;;;;23.83;100.00;157468.91;6243878;22;20426;-71
2023/09/07 08:53:40;;;;;;;15.35;9.38;;;;;;;23.84;100.00;157470.25;6243013;22;20004;-71
2023/09/07 08:56:09;;;;;;;13.70;9.48;;;;;;;23.99;100.00;157510.81;6243647;22;20028;-70
2023/09/07 08:58:36;;;;;;;22.00;9.38;;;;;;;24.19;100.00;157561.81;6243864;22;20000;-71
2023/09/07 09:01:01;;;;;;;;;;;;;;;24.26;100.00;157580.13;6244497;22;20428;-71
2023/09/07 09:03:28;;;;;;;14.20;9.27;;;;;;;24.41;100.00;157620.72;6243250;23;19908;-71
2023/09/07 09:05:56;;;;;;;18.10;8.55;;;;;;;24.52;100.00;157649.50;6243801;23;20011;-72
2023/09/07 09:08:24;;;;;;;16.73;9.25;;;;;;;24.74;100.00;157705.78;6242981;22;20082;-71
2023/09/07 09:10:58;;;;;;;12.07;8.75;;;;;;;24.90;100.00;157749.00;6244091;22;20000;-71
2023/09/07 09:13:31;;;;;;;16.27;8.95;;;;;;;24.98;100.00;157769.91;6243416;22;20337;-70
2023/09/07 09:15:59;;;;;;;9.35;7.35;;;;;;;25.14;100.00;157811.78;6243650;22;20430;-69
2023/09/07 09:18:26;;;;;;;15.32;8.00;;;;;;;25.28;100.00;157847.22;6243751;22;20028;-71
2023/09/07 09:20:52;;;;;;;14.63;7.60;;;;;;;25.43;100.00;157887.81;6242693;22;20465;-71
2023/09/07 09:23:17;;;;;;;10.43;6.77;;;;;;;25.67;100.00;157950.63;6241335;22;20032;-72
2023/09/07 09:25:43;;;;;;;16.80;7.10;;;;;;;25.77;100.00;157975.53;6239507;23;20030;-71
2023/09/07 09:28:11;;;;;;;11.40;6.00;;;;;;;25.90;100.00;158009.56;6244272;23;20284;-71
2023/09/07 09:30:37;;;;;;;15.60;6.10;;;;;;;26.06;100.00;158051.53;6242676;22;20038;-71
2023/09/07 09:33:05;;;;;;;15.73;6.80;;;;;;;26.18;100.00;158082.94;6242169;22;20004;-69
2023/09/07 09:35:31;;;;;;;13.25;6.75;;;;;;;26.45;100.00;158153.69;6241646;23;20045;-69
2023/09/07 09:38:04;;;;;;;10.10;6.28;;;;;;;26.42;100.00;158147.13;6242504;22;20303;-70
2023/09/07 09:40:30;;;;;;;16.58;6.10;;;;;;;26.61;100.00;158195.66;6242674;22;20043;-71
2023/09/07 09:42:57;;;;;;;12.13;5.95;;;;;;;26.68;100.00;158214.06;6243310;22;20426;-72
2023/09/07 09:45:24;;;;;;;15.70;6.03;;;;;;;26.80;100.00;158245.50;6242601;22;20012;-73
2023/09/07 09:47:50;;;;;;;17.73;6.57;;;;;;;26.69;100.00;158216.66;6243560;23;20022;-74
2023/09/07 09:50:16;;;;;;;;;;;;;;;26.92;100.00;158278.25;6242489;23;20146;-73
2023/09/07 09:52:42;;;;;;;8.82;5.55;;;;;;;27.10;100.00;158325.41;6242577;23;19907;-73
2023/09/07 09:55:12;;;;;;;14.98;6.32;;;;;;;27.21;100.00;158353.03;6242949;23;20083;-73
2023/09/07 09:57:38;;;;;;;14.90;6.28;;;;;;;27.23;100.00;158358.25;6243041;23;20000;-73
2023/09/07 10:00:25;;;;;;;14.63;5.90;;;;;;;27.12;100.00;158329.38;6242459;23;20063;-73
2023/09/07 10:02:54;;;;;;;;;;;;;;;27.16;100.00;158341.16;6243779;23;20391;-73
2023/09/07 10:05:20;;;;;;;11.55;5.60;;;;;;;27.51;100.00;158431.66;6214449;23;19903;-73
2023/09/07 10:07:49;;;;;;;10.23;5.30;;;;;;;27.65;100.00;158468.38;6241045;23;20090;-72
2023/09/07 10:10:17;;;;;;;13.35;5.47;;;;;;;27.67;100.00;158473.59;6242860;23;20007;-73
2023/09/07 10:12:44;;;;;;;9.07;5.10;;;;;;;27.85;100.00;158522.19;6243263;23;20311;-73
2023/09/07 10:15:23;;;;;;;19.35;5.38;;;;;;;28.11;100.00;158590.38;6241089;23;20000;-73
2023/09/07 10:17:52;;;;;;;9.13;5.13;;;;;;;28.35;100.00;158652.03;6211681;23;20390;-73
2023/09/07 10:20:20;;;;;;;12.40;4.47;;;;;;;28.44;100.00;158675.72;6242238;23;20003;-73
2023/09/07 10:22:46;;;;;;;12.80;4.82;;;;;;;28.43;100.00;158673.09;6241726;23;20372;-74
2023/09/07 10:25:19;;;;;;;12.23;4.70;;;;;;;28.50;100.00;158691.47;6243354;23;19999;-74
2023/09/07 10:27:45;;;;;;;5.55;4.20;;;;;;;28.60;100.00;158717.72;6241954;23;20290;-73
2023/09/07 10:30:12;;;;;;;8.67;4.73;;;;;;;28.73;100.00;158751.78;6241668;23;20360;-74
2023/09/07 10:32:41;;;;;;;7.90;4.22;;;;;;;28.91;100.00;158800.34;6242137;23;20004;-73
2023/09/07 10:35:18;;;;;;;8.20;4.28;;;;;;;28.99;100.00;158820.09;6213492;23;20008;-73
2023/09/07 10:37:46;;;;;;;10.85;4.97;;;;;;;28.76;100.00;158760.97;6238607;23;20015;-73
2023/09/07 10:40:14;;;;;;;10.50;4.03;;;;;;;28.96;100.00;158813.53;6241068;23;20452;-73
2023/09/07 10:42:39;;;;;;;10.48;3.85;;;;;;;29.01;100.00;158825.31;6215133;23;20498;-73
2023/09/07 10:45:15;;;;;;;8.55;4.18;;;;;;;29.09;100.00;158846.34;6242761;23;20028;-74
2023/09/07 10:47:42;;;;;;;11.05;4.22;;;;;;;29.01;100.00;158826.66;6242233;23;20004;-73
2023/09/07 10:50:10;;;;;;;11.02;4.47;;;;;;;29.24;100.00;158885.75;6242301;23;20019;-73
2023/09/07 10:52:36;;;;;;;10.52;5.07;;;;;;;29.26;100.00;158890.97;6215485;23;20557;-73
2023/09/07 10:55:01;;;;;;;10.73;5.13;;;;;;;29.16;100.00;158866.03;6242245;23;20026;-74
2023/09/07 10:57:27;;;;;;;8.18;4.45;;;;;;;29.35;100.00;158914.59;6241537;23;20450;-74
2023/09/07 10:59:55;;;;;;;8.88;4.72;;;;;;;29.34;100.00;158912.00;6241380;23;20138;-74
2023/09/07 11:02:20;;;;;;;11.45;5.15;;;;;;;29.33;100.00;158909.31;6241655;23;20036;-74
2023/09/07 11:04:46;;;;;;;5.40;4.50;;;;;;;29.53;100.00;158961.84;6240526;23;20500;-75
2023/09/07 11:07:12;;;;;;;12.63;5.07;;;;;;;29.72;100.00;159011.81;6241677;23;20315;-74
2023/09/07 11:09:41;;;;;;;10.23;4.60;;;;;;;29.77;100.00;159026.22;6241027;23;20073;-74
2023/09/07 11:12:08;;;;;;;13.77;4.30;;;;;;;29.87;100.00;159052.50;6242020;23;20272;-74
2023/09/07 11:14:33;;;;;;;11.60;5.07;;;;;;;29.68;100.00;159002.63;6213061;23;20011;-74
2023/09/07 11:17:00;;;;;;;7.97;4.75;;;;;;;29.72;100.00;159013.09;6238161;23;20339;-74
2023/09/07 11:19:26;;;;;;;8.70;4.47;;;;;;;29.77;100.00;159026.22;6241096;23;20401;-73
2023/09/07 11:21:53;;;;;;;7.15;4.40;;;;;;;29.69;100.00;159003.91;6241700;23;20039;-73
2023/09/07 11:24:19;;;;;;;13.00;4.72;;;;;;;29.67;100.00;158998.69;6241120;23;20008;-73
2023/09/07 11:26:46;;;;;;;13.00;4.07;;;;;;;29.91;100.00;159061.69;6241892;23;20369;-73
2023/09/07 11:29:16;;;;;;;11.20;4.43;;;;;;;30.14;100.00;159122.19;6242655;23;20004;-73
2023/09/07 11:31:42;;;;;;;16.52;5.38;;;;;;;29.90;100.00;159060.41;6242280;23;20551;-73
2023/09/07 11:34:14;;;;;;;6.85;4.00;;;;;;;30.02;100.00;159090.56;6214023;23;20069;-73
2023/09/07 11:36:41;;;;;;;18.02;4.32;;;;;;;29.99;100.00;159082.72;6241466;23;20012;-73
2023/09/07 11:39:12;;;;;;;8.05;4.03;;;;;;;30.18;100.00;159133.97;6241380;23;20000;-73
2023/09/07 11:41:42;;;;;;;7.10;4.20;;;;;;;29.98;100.00;159081.38;6237424;23;20015;-74
2023/09/07 11:44:08;;;;;;;14.88;5.10;;;;;;;29.98;100.00;159080.09;6240420;23;20079;-73
2023/09/07 11:46:34;;;;;;;10.00;4.60;;;;;;;30.09;100.00;159109.00;6240071;23;20012;-73